Terminal Aerodrome Forecast
Issued by NWS

Home | Current Version | Previous Version | Text Only | Print | Product List | Glossary On
Versions: 1 2 3 4 5 6 7 8 9 10 11 12 13 14 15 16
000
FTUS46 KLOX 050541
TAFPRB
TAF
KPRB 050541Z 0506/0606 29010KT P6SM SKC
     FM050800 31006KT P6SM SKC
     FM051100 VRB03KT P6SM SKC
     FM051900 20010KT P6SM SKC
     FM060000 30010KT P6SM SKC=

USA.gov is the U.S. government's official web portal to all federal, state and local government web resources and services.